Time;durP1;ratioP1;P1;durP2;ratioP2;P2;SDS_P1;SDS_P2;PMS_P1;PMS_P2;Temp;Humidity;BMP_temperature;BMP_pressure;BME280_temperature;BME280_humidity;BME280_pressure;Samples;Min_cycle;Max_cycle;Signal;HPM_P1;HPM_P2
2023/12/19 00:00:19;;;;;;;29.90;21.13;;;11.20;66.40;;;;;;5096550;28;20174;-90
2023/12/19 00:02:45;;;;;;;26.10;19.07;;;11.10;66.20;;;;;;5096421;28;20577;-87
2023/12/19 00:05:11;;;;;;;23.93;19.57;;;11.20;66.40;;;;;;5096207;28;20175;-91
2023/12/19 00:07:37;;;;;;;27.10;19.13;;;11.10;67.00;;;;;;5095325;28;20180;-88
2023/12/19 00:10:03;;;;;;;25.77;18.87;;;11.10;66.10;;;;;;5095300;28;20183;-88
2023/12/19 00:12:28;;;;;;;24.87;18.43;;;11.10;66.10;;;;;;5096048;28;20216;-88
2023/12/19 00:14:54;;;;;;;24.67;19.07;;;11.10;66.10;;;;;;5095574;28;20175;-88
2023/12/19 00:17:20;;;;;;;23.20;17.63;;;11.10;66.00;;;;;;5095579;28;20185;-88
2023/12/19 00:19:45;;;;;;;23.70;18.53;;;11.00;65.80;;;;;;5095166;28;20796;-89
2023/12/19 00:22:11;;;;;;;24.07;17.83;;;11.00;65.70;;;;;;5095399;28;20224;-89
2023/12/19 00:24:40;;;;;;;20.87;17.27;;;11.00;65.90;;;;;;5078040;28;20184;-88
2023/12/19 00:27:05;;;;;;;21.80;16.17;;;11.00;65.90;;;;;;5095474;28;20187;-88
2023/12/19 00:29:31;;;;;;;21.83;16.43;;;11.00;66.00;;;;;;5095338;28;20179;-90
2023/12/19 00:31:56;;;;;;;21.87;17.10;;;11.10;66.10;;;;;;5095968;28;20179;-87
2023/12/19 00:34:22;;;;;;;20.80;16.10;;;11.10;66.00;;;;;;5114473;27;20183;-88
2023/12/19 00:36:48;;;;;;;18.40;15.93;;;11.10;65.80;;;;;;5096120;27;20290;-90
2023/12/19 00:39:13;;;;;;;19.50;15.67;;;11.10;65.60;;;;;;5095662;28;20184;-89
2023/12/19 00:41:39;;;;;;;19.77;15.17;;;11.10;65.80;;;;;;5095030;28;20180;-88
2023/12/19 00:44:05;;;;;;;21.20;16.10;;;11.20;65.80;;;;;;5113524;28;20250;-90
2023/12/19 00:46:31;;;;;;;21.70;16.60;;;11.10;65.70;;;;;;5095325;28;20183;-87
2023/12/19 00:48:56;;;;;;;20.23;15.33;;;11.10;65.70;;;;;;5095260;28;20232;-92
2023/12/19 00:51:22;;;;;;;22.77;15.70;;;11.10;65.70;;;;;;5095214;28;20175;-91
2023/12/19 00:53:47;;;;;;;19.20;15.20;;;11.10;65.70;;;;;;5094370;28;20228;-88
2023/12/19 00:56:13;;;;;;;22.27;15.03;;;11.10;65.40;;;;;;5098968;28;20199;-91
2023/12/19 00:58:39;;;;;;;18.20;14.70;;;11.10;65.40;;;;;;5093735;28;20179;-91
2023/12/19 01:01:06;;;;;;;19.50;14.53;;;11.10;65.50;;;;;;5079104;28;20187;-89
2023/12/19 01:03:32;;;;;;;18.53;14.60;;;11.10;65.40;;;;;;5095554;28;20168;-88
2023/12/19 01:06:00;;;;;;;17.97;14.20;;;11.10;65.20;;;;;;5112444;28;20187;-92
2023/12/19 01:08:26;;;;;;;20.10;15.00;;;11.10;65.20;;;;;;5094716;28;20179;-90
2023/12/19 01:10:53;;;;;;;15.80;13.17;;;11.10;65.00;;;;;;5095679;28;20256;-90
2023/12/19 01:13:19;;;;;;;18.37;14.33;;;11.00;64.90;;;;;;5113253;28;20184;-90
2023/12/19 01:15:44;;;;;;;16.03;12.57;;;11.10;64.90;;;;;;5094734;28;20561;-89
2023/12/19 01:18:10;;;;;;;18.07;13.07;;;11.10;64.90;;;;;;5094827;28;20184;-90
2023/12/19 01:20:36;;;;;;;19.20;13.40;;;11.20;65.10;;;;;;5086336;28;20187;-89
2023/12/19 01:23:01;;;;;;;16.70;12.37;;;11.10;64.80;;;;;;5085815;28;20210;-87
2023/12/19 01:25:27;;;;;;;19.90;12.63;;;11.10;64.70;;;;;;5112341;28;20187;-90
2023/12/19 01:27:53;;;;;;;20.60;12.80;;;11.10;64.50;;;;;;5096346;28;20168;-88
2023/12/19 01:30:18;;;;;;;16.53;12.90;;;11.10;64.30;;;;;;5094702;28;20194;-89
2023/12/19 01:32:44;;;;;;;18.30;12.77;;;11.00;63.90;;;;;;5087998;28;20179;-90
2023/12/19 01:35:09;;;;;;;16.77;11.90;;;11.00;63.80;;;;;;5112763;28;20561;-90
2023/12/19 01:37:35;;;;;;;15.90;12.00;;;10.90;63.50;;;;;;5094870;28;20270;-90
2023/12/19 01:40:01;;;;;;;14.63;11.77;;;10.90;63.60;;;;;;5094549;28;20413;-90
2023/12/19 01:42:27;;;;;;;14.10;11.20;;;10.90;63.50;;;;;;5095107;28;20175;-89
2023/12/19 01:45:22;;;;;;;14.77;10.73;;;11.00;63.50;;;;;;5078976;28;20190;-89
2023/12/19 01:47:49;;;;;;;18.17;11.90;;;10.90;63.20;;;;;;5086679;28;20308;-89
2023/12/19 01:50:16;;;;;;;13.93;10.20;;;11.00;63.30;;;;;;5089793;28;20223;-88
2023/12/19 01:52:45;;;;;;;14.17;10.50;;;10.90;63.00;;;;;;5100671;28;20180;-88
2023/12/19 01:55:13;;;;;;;12.13;9.63;;;10.90;63.10;;;;;;5077148;28;20363;-88
2023/12/19 01:57:39;;;;;;;18.23;10.03;;;10.90;63.00;;;;;;5090406;28;20183;-88
2023/12/19 02:00:07;;;;;;;12.97;9.87;;;10.90;62.90;;;;;;5083039;28;20180;-87
2023/12/19 02:02:32;;;;;;;13.73;9.47;;;10.90;63.20;;;;;;5091826;28;20213;-88
2023/12/19 02:04:59;;;;;;;15.20;10.70;;;10.90;62.30;;;;;;5093042;28;20193;-87
2023/12/19 02:07:25;;;;;;;12.47;9.30;;;10.90;62.00;;;;;;5094013;28;20187;-88
2023/12/19 02:09:53;;;;;;;13.47;9.67;;;10.90;62.50;;;;;;5112223;28;20179;-88
2023/12/19 02:12:20;;;;;;;12.40;8.90;;;10.90;61.70;;;;;;5112390;28;20682;-89
2023/12/19 02:14:46;;;;;;;12.67;9.60;;;10.90;61.70;;;;;;5088047;28;20184;-88
2023/12/19 02:17:12;;;;;;;14.23;9.10;;;10.80;61.00;;;;;;5103693;28;20266;-88
2023/12/19 02:19:45;;;;;;;13.63;9.50;;;10.80;61.30;;;;;;5092892;28;20218;-89
2023/12/19 02:22:11;;;;;;;11.63;9.23;;;10.80;60.90;;;;;;5093629;28;20179;-89
2023/12/19 02:24:37;;;;;;;13.43;9.27;;;10.80;60.80;;;;;;5094339;28;20199;-89
2023/12/19 02:27:03;;;;;;;12.37;9.13;;;10.80;60.60;;;;;;5093597;28;20211;-88
2023/12/19 02:29:29;;;;;;;13.57;8.73;;;10.80;60.50;;;;;;5094221;28;20180;-88
2023/12/19 02:31:54;;;;;;;12.73;9.00;;;10.90;60.60;;;;;;5096546;28;20184;-88
2023/12/19 02:34:20;;;;;;;11.43;8.87;;;10.90;60.60;;;;;;5097304;28;20225;-88
2023/12/19 02:36:46;;;;;;;13.80;8.43;;;10.90;60.20;;;;;;5081390;28;20200;-88
2023/12/19 02:39:11;;;;;;;12.20;8.97;;;10.80;59.80;;;;;;5114876;28;20264;-88
2023/12/19 02:41:37;;;;;;;11.70;8.43;;;10.80;59.70;;;;;;5096798;28;20179;-88
2023/12/19 02:44:02;;;;;;;10.60;8.10;;;10.80;59.60;;;;;;5115517;28;20176;-88
2023/12/19 02:46:28;;;;;;;12.23;8.77;;;10.80;59.60;;;;;;5115468;28;20182;-87
2023/12/19 02:48:54;;;;;;;11.07;7.63;;;10.90;59.50;;;;;;5095605;28;20176;-88
2023/12/19 02:51:20;;;;;;;10.40;7.67;;;10.80;59.20;;;;;;5097280;28;20178;-88
2023/12/19 02:53:46;;;;;;;11.10;8.20;;;10.80;59.20;;;;;;5096478;28;20179;-89
2023/12/19 02:56:12;;;;;;;10.83;8.20;;;10.80;59.00;;;;;;5096694;28;20195;-88
2023/12/19 02:58:37;;;;;;;10.87;8.03;;;10.80;58.90;;;;;;5096261;28;20186;-89
2023/12/19 03:01:06;;;;;;;12.03;7.67;;;10.90;59.10;;;;;;5097306;28;20691;-88
2023/12/19 03:03:32;;;;;;;10.30;8.10;;;10.90;58.90;;;;;;5096567;28;20204;-88
2023/12/19 03:05:57;;;;;;;10.93;7.90;;;10.90;59.00;;;;;;5087712;28;20219;-89
2023/12/19 03:08:23;;;;;;;9.83;7.37;;;10.80;58.90;;;;;;5086987;28;20274;-87
2023/12/19 03:10:49;;;;;;;11.23;7.77;;;10.70;58.60;;;;;;5094524;28;20219;-87
2023/12/19 03:13:14;;;;;;;13.83;8.73;;;10.80;58.80;;;;;;5098279;28;21230;-89
2023/12/19 03:15:40;;;;;;;11.90;8.23;;;10.70;58.40;;;;;;5096869;28;20203;-88
2023/12/19 03:18:06;;;;;;;11.27;7.63;;;10.80;58.50;;;;;;5096201;28;20191;-89
2023/12/19 03:20:31;;;;;;;12.07;7.93;;;10.80;58.60;;;;;;5096704;28;20259;-88
2023/12/19 03:22:57;;;;;;;10.47;7.97;;;10.70;58.10;;;;;;5095882;28;20200;-88
2023/12/19 03:25:22;;;;;;;10.97;8.10;;;10.70;58.80;;;;;;5079683;28;20192;-88
2023/12/19 03:27:48;;;;;;;8.97;7.10;;;10.80;58.20;;;;;;5114663;28;20177;-89
2023/12/19 03:30:14;;;;;;;10.43;7.80;;;10.80;58.00;;;;;;5088731;28;20545;-88
2023/12/19 03:32:39;;;;;;;15.00;7.67;;;10.70;57.70;;;;;;5097792;28;20180;-89
2023/12/19 03:35:05;;;;;;;11.53;7.77;;;10.80;57.90;;;;;;5095339;28;20583;-88
2023/12/19 03:37:31;;;;;;;10.20;8.37;;;10.80;57.50;;;;;;5096538;28;20189;-88
2023/12/19 03:39:57;;;;;;;12.77;8.73;;;10.70;57.00;;;;;;5095955;28;20177;-88
2023/12/19 03:42:23;;;;;;;12.70;8.47;;;10.70;57.00;;;;;;5083341;28;20184;-89
2023/12/19 03:44:49;;;;;;;11.70;8.30;;;10.70;57.10;;;;;;5090260;28;20171;-88
2023/12/19 03:47:15;;;;;;;11.90;8.07;;;10.80;57.00;;;;;;5113989;27;20618;-87
2023/12/19 03:49:40;;;;;;;14.10;8.43;;;10.70;56.70;;;;;;5096495;28;20266;-89
2023/12/19 03:52:08;;;;;;;10.97;8.07;;;10.70;56.40;;;;;;5096409;28;20186;-88
2023/12/19 03:54:33;;;;;;;11.90;7.50;;;10.70;56.40;;;;;;5111110;28;20172;-88
2023/12/19 03:56:59;;;;;;;10.73;8.07;;;10.70;56.40;;;;;;5095675;28;20206;-89
2023/12/19 03:59:25;;;;;;;10.20;7.67;;;10.70;55.40;;;;;;5092641;28;20590;-88
2023/12/19 04:01:51;;;;;;;10.50;8.30;;;10.80;55.60;;;;;;5088084;28;20180;-88
2023/12/19 04:04:17;;;;;;;10.73;8.43;;;10.60;55.40;;;;;;5095966;28;20171;-88
2023/12/19 04:06:44;;;;;;;11.07;8.47;;;10.60;55.40;;;;;;5079645;28;20229;-88
2023/12/19 04:09:12;;;;;;;12.03;7.87;;;10.60;55.10;;;;;;5090951;28;20731;-88
2023/12/19 04:11:38;;;;;;;11.63;7.97;;;10.60;55.10;;;;;;5095144;28;20268;-88
2023/12/19 04:14:05;;;;;;;11.80;7.83;;;10.60;55.10;;;;;;5113235;28;20754;-88
2023/12/19 04:16:31;;;;;;;11.17;8.27;;;10.60;55.20;;;;;;5113830;28;20200;-88
2023/12/19 04:18:57;;;;;;;9.27;7.43;;;10.70;55.20;;;;;;5080247;28;20224;-88
2023/12/19 04:21:22;;;;;;;11.33;7.40;;;10.60;54.50;;;;;;5093147;28;20184;-89
2023/12/19 04:23:48;;;;;;;9.90;6.87;;;10.60;54.00;;;;;;5093228;28;20178;-88
2023/12/19 04:26:19;;;;;;;10.87;7.17;;;10.60;53.50;;;;;;5094187;28;20182;-88
2023/12/19 04:28:45;;;;;;;10.43;7.40;;;10.50;53.60;;;;;;5094798;28;20186;-89
2023/12/19 04:31:10;;;;;;;10.50;7.47;;;10.50;53.70;;;;;;5078312;28;20176;-88
2023/12/19 04:33:36;;;;;;;11.20;8.20;;;10.50;54.00;;;;;;5083097;28;20229;-88
2023/12/19 04:36:02;;;;;;;12.20;7.77;;;10.50;53.80;;;;;;5090231;28;20196;-88
2023/12/19 04:38:28;;;;;;;10.00;7.60;;;10.60;53.70;;;;;;5095241;28;20237;-88
2023/12/19 04:40:53;;;;;;;10.17;8.00;;;10.60;53.60;;;;;;5094920;28;20640;-88
2023/12/19 04:43:19;;;;;;;10.23;7.13;;;10.60;52.90;;;;;;5095079;28;20297;-88
2023/12/19 04:45:45;;;;;;;9.77;7.23;;;10.60;52.90;;;;;;5094668;28;20228;-88
2023/12/19 04:48:10;;;;;;;8.83;7.07;;;10.60;53.20;;;;;;5093829;28;20175;-88
2023/12/19 04:50:36;;;;;;;12.13;8.23;;;10.60;53.20;;;;;;5113366;28;20257;-88
2023/12/19 04:53:01;;;;;;;11.77;7.23;;;10.70;53.00;;;;;;5101383;28;20236;-88
2023/12/19 04:55:27;;;;;;;9.50;7.17;;;10.60;52.90;;;;;;5131429;27;20241;-88
2023/12/19 04:57:52;;;;;;;10.87;6.97;;;10.70;52.50;;;;;;5075389;28;20184;-89
2023/12/19 05:00:18;;;;;;;9.70;7.10;;;10.70;52.50;;;;;;5095498;28;20180;-88
2023/12/19 05:02:44;;;;;;;8.97;6.87;;;10.50;52.00;;;;;;5091018;28;20657;-88
2023/12/19 05:05:09;;;;;;;11.23;7.20;;;10.50;52.10;;;;;;5081879;28;20548;-87
2023/12/19 05:07:36;;;;;;;10.30;7.60;;;10.60;52.10;;;;;;5094577;28;20321;-88
2023/12/19 05:10:02;;;;;;;10.73;7.70;;;10.70;52.40;;;;;;5079844;28;20169;-88
2023/12/19 05:12:28;;;;;;;13.00;7.90;;;10.60;52.10;;;;;;5091918;28;20676;-89
2023/12/19 05:14:53;;;;;;;10.90;7.47;;;10.60;52.10;;;;;;5094032;28;20236;-89
2023/12/19 05:17:19;;;;;;;9.20;6.87;;;10.70;51.90;;;;;;5112419;28;20178;-89
2023/12/19 05:19:44;;;;;;;9.00;6.83;;;10.60;51.90;;;;;;5112684;28;20189;-88
2023/12/19 05:22:10;;;;;;;9.17;6.93;;;10.60;51.50;;;;;;5113072;28;20221;-88
2023/12/19 05:24:38;;;;;;;13.80;7.10;;;10.50;51.00;;;;;;5095181;28;20232;-88
2023/12/19 05:27:04;;;;;;;9.17;6.90;;;10.50;51.20;;;;;;5093812;28;20184;-89
2023/12/19 05:29:30;;;;;;;8.87;7.00;;;10.60;51.70;;;;;;5093861;28;20249;-89
2023/12/19 05:31:57;;;;;;;10.03;7.43;;;10.70;51.80;;;;;;5089740;28;20250;-89
2023/12/19 05:34:22;;;;;;;11.73;7.53;;;10.60;51.70;;;;;;5087023;28;20184;-89
2023/12/19 05:36:48;;;;;;;10.37;7.40;;;10.70;51.60;;;;;;5113157;28;20198;-89
2023/12/19 05:39:15;;;;;;;12.10;7.77;;;10.60;51.10;;;;;;5106212;28;20187;-89
2023/12/19 05:41:41;;;;;;;10.80;8.00;;;10.80;51.20;;;;;;5091504;28;20177;-89
2023/12/19 05:44:06;;;;;;;12.23;7.83;;;10.70;50.80;;;;;;5121485;28;20737;-89
2023/12/19 05:46:32;;;;;;;10.50;7.03;;;10.70;51.10;;;;;;5088673;28;20195;-89
2023/12/19 05:48:58;;;;;;;9.00;6.73;;;10.70;51.20;;;;;;5095094;28;20552;-89
2023/12/19 05:51:23;;;;;;;10.77;7.93;;;10.70;50.80;;;;;;5109897;28;20262;-89
2023/12/19 05:53:49;;;;;;;12.20;7.67;;;10.70;51.10;;;;;;5108564;28;20205;-89
2023/12/19 05:56:15;;;;;;;9.33;7.37;;;10.80;51.50;;;;;;5083552;28;20542;-87
2023/12/19 05:58:41;;;;;;;9.17;7.03;;;10.80;51.50;;;;;;5084500;28;20192;-87
2023/12/19 06:01:07;;;;;;;10.07;7.37;;;10.80;51.50;;;;;;5082073;28;20172;-86
2023/12/19 06:03:32;;;;;;;8.43;6.87;;;10.80;51.30;;;;;;5110128;28;20275;-87
2023/12/19 06:05:58;;;;;;;11.90;7.60;;;10.80;51.10;;;;;;5091383;28;20206;-86
2023/12/19 06:08:24;;;;;;;10.20;7.33;;;10.80;50.90;;;;;;5102838;28;20183;-89
2023/12/19 06:10:51;;;;;;;10.13;7.20;;;10.80;50.90;;;;;;5080682;28;20565;-87
2023/12/19 06:13:17;;;;;;;10.77;7.53;;;10.80;50.70;;;;;;5097506;28;20289;-87
2023/12/19 06:15:42;;;;;;;9.80;6.73;;;10.80;50.60;;;;;;5096680;28;20211;-86
2023/12/19 06:18:08;;;;;;;8.83;6.83;;;10.90;51.00;;;;;;5090869;28;20187;-86
2023/12/19 06:20:34;;;;;;;9.53;7.17;;;10.90;50.60;;;;;;5085523;28;20577;-87
2023/12/19 06:23:00;;;;;;;12.00;8.10;;;10.80;50.80;;;;;;5097240;28;20631;-87
2023/12/19 06:25:25;;;;;;;10.33;7.13;;;10.80;50.20;;;;;;5097729;28;20266;-86
2023/12/19 06:27:52;;;;;;;9.20;7.50;;;10.70;50.20;;;;;;5096266;28;20186;-86
2023/12/19 06:30:17;;;;;;;8.83;6.87;;;10.80;50.50;;;;;;5095492;28;20182;-85
2023/12/19 06:32:45;;;;;;;10.90;7.30;;;10.80;50.60;;;;;;5108619;27;20271;-87
2023/12/19 06:35:11;;;;;;;9.73;7.13;;;10.90;50.50;;;;;;5087727;28;20208;-86
2023/12/19 06:37:37;;;;;;;10.47;7.47;;;10.70;50.30;;;;;;5088791;28;20318;-88
2023/12/19 06:40:04;;;;;;;10.77;7.27;;;10.70;50.60;;;;;;5087436;28;20207;-85
2023/12/19 06:42:30;;;;;;;8.50;6.80;;;10.70;50.30;;;;;;5091418;28;20204;-88
2023/12/19 06:44:55;;;;;;;11.93;8.10;;;10.70;50.40;;;;;;5081404;28;20194;-86
2023/12/19 06:47:21;;;;;;;10.30;7.33;;;10.70;50.30;;;;;;5091448;28;20629;-86
2023/12/19 06:49:47;;;;;;;10.47;7.77;;;10.60;50.60;;;;;;5095442;28;20212;-86
2023/12/19 06:52:12;;;;;;;11.30;7.73;;;10.70;50.90;;;;;;5083289;28;20177;-86
2023/12/19 06:54:38;;;;;;;12.70;7.50;;;10.60;51.00;;;;;;5095078;28;20183;-87
2023/12/19 06:57:05;;;;;;;9.90;6.83;;;10.60;51.40;;;;;;5115107;27;20585;-86
2023/12/19 06:59:34;;;;;;;10.57;7.67;;;10.60;51.70;;;;;;5097056;28;20183;-88
2023/12/19 07:01:59;;;;;;;11.83;7.93;;;10.70;51.80;;;;;;5090677;28;20182;-87
2023/12/19 07:04:26;;;;;;;12.13;8.00;;;10.60;52.20;;;;;;5097881;28;20172;-87
2023/12/19 07:06:51;;;;;;;10.23;8.23;;;10.60;52.60;;;;;;5099256;27;20316;-86
2023/12/19 07:09:17;;;;;;;9.60;7.63;;;10.50;52.90;;;;;;5093365;27;20222;-86
2023/12/19 07:11:43;;;;;;;12.37;7.60;;;10.40;53.30;;;;;;5091304;28;20623;-87
2023/12/19 07:14:08;;;;;;;11.30;7.33;;;10.60;53.70;;;;;;5086299;28;20207;-86
2023/12/19 07:16:35;;;;;;;10.80;7.10;;;10.50;53.80;;;;;;5078267;28;20746;-85
2023/12/19 07:19:04;;;;;;;11.83;8.37;;;10.50;54.00;;;;;;5087175;28;20255;-87
2023/12/19 07:21:31;;;;;;;11.50;8.30;;;10.50;54.00;;;;;;5080786;28;20183;-87
2023/12/19 07:23:58;;;;;;;12.20;7.67;;;10.50;54.10;;;;;;5097914;28;20172;-87
2023/12/19 07:26:26;;;;;;;12.30;7.93;;;10.60;54.20;;;;;;5102784;28;20215;-86
2023/12/19 07:28:53;;;;;;;11.03;7.30;;;10.60;54.20;;;;;;5087761;28;20196;-87
2023/12/19 07:31:26;;;;;;;12.23;7.87;;;10.70;54.20;;;;;;5083138;28;20222;-86
2023/12/19 07:33:56;;;;;;;10.37;7.33;;;10.60;54.20;;;;;;5104613;28;20262;-86
2023/12/19 07:36:22;;;;;;;12.87;8.10;;;10.70;54.30;;;;;;5084747;28;20203;-87
2023/12/19 07:38:48;;;;;;;12.80;7.43;;;10.60;54.20;;;;;;5082951;28;21169;-88
2023/12/19 07:41:14;;;;;;;9.73;7.27;;;10.50;54.10;;;;;;5106319;28;20212;-88
2023/12/19 07:43:40;;;;;;;13.93;7.77;;;10.50;54.20;;;;;;5090955;28;20539;-87
2023/12/19 07:46:06;;;;;;;12.13;8.03;;;10.60;54.40;;;;;;5087405;28;20168;-87
2023/12/19 07:48:32;;;;;;;9.97;7.17;;;10.60;54.30;;;;;;5088562;28;20655;-86
2023/12/19 07:50:58;;;;;;;14.77;8.00;;;10.60;54.20;;;;;;5083481;28;20668;-87
2023/12/19 07:53:27;;;;;;;11.03;7.30;;;10.50;54.00;;;;;;5079808;28;20184;-87
2023/12/19 07:55:53;;;;;;;10.20;7.77;;;10.60;54.20;;;;;;5106504;28;20219;-88
2023/12/19 07:58:19;;;;;;;10.97;7.87;;;10.60;54.20;;;;;;5089111;28;20214;-87
2023/12/19 08:00:47;;;;;;;14.73;8.10;;;10.60;54.30;;;;;;5087290;28;20238;-87
2023/12/19 08:03:14;;;;;;;10.73;7.70;;;10.60;54.10;;;;;;5082659;28;20184;-87
2023/12/19 08:05:45;;;;;;;11.50;7.80;;;10.60;54.10;;;;;;5085818;28;20629;-87
2023/12/19 08:08:11;;;;;;;9.87;7.73;;;10.60;54.30;;;;;;5106013;28;20176;-87
2023/12/19 08:10:36;;;;;;;13.40;7.77;;;10.50;54.60;;;;;;5083765;28;20223;-87
2023/12/19 08:13:02;;;;;;;10.80;7.57;;;10.50;54.90;;;;;;5060446;28;20294;-87
2023/12/19 08:15:28;;;;;;;10.43;8.27;;;10.50;55.10;;;;;;5065827;28;20562;-87
2023/12/19 08:17:53;;;;;;;9.90;7.73;;;10.50;55.30;;;;;;5064242;28;20223;-88
2023/12/19 08:20:19;;;;;;;10.23;7.60;;;10.60;55.70;;;;;;5059849;28;20173;-87
2023/12/19 08:22:45;;;;;;;14.00;8.10;;;10.50;55.80;;;;;;5053221;28;20185;-88
2023/12/19 08:25:10;;;;;;;11.03;7.40;;;10.50;56.00;;;;;;5064998;28;20634;-88
2023/12/19 08:27:36;;;;;;;10.83;7.97;;;10.50;56.10;;;;;;5067743;28;20176;-87
2023/12/19 08:30:03;;;;;;;11.10;7.57;;;10.40;56.20;;;;;;5056932;28;20181;-87
2023/12/19 08:32:29;;;;;;;10.67;8.07;;;10.50;56.30;;;;;;5053597;28;20177;-86
2023/12/19 08:34:58;;;;;;;10.70;7.77;;;10.50;56.40;;;;;;5058839;28;20185;-87
2023/12/19 08:37:28;;;;;;;11.33;7.37;;;10.50;56.40;;;;;;5067688;28;20196;-87
2023/12/19 08:39:56;;;;;;;9.67;7.10;;;10.50;56.30;;;;;;5060235;28;20613;-87
2023/12/19 08:42:22;;;;;;;9.27;7.40;;;10.50;56.40;;;;;;5058621;28;20173;-86
2023/12/19 08:44:51;;;;;;;10.00;7.67;;;10.60;56.40;;;;;;5052082;28;20609;-87
2023/12/19 08:47:17;;;;;;;10.90;7.70;;;10.60;56.40;;;;;;5058045;28;20180;-88
2023/12/19 08:49:43;;;;;;;11.23;8.10;;;10.80;56.50;;;;;;5055515;28;20187;-87
2023/12/19 08:52:09;;;;;;;10.47;7.77;;;10.70;56.30;;;;;;5056646;28;20188;-87
2023/12/19 08:54:36;;;;;;;10.27;8.10;;;10.90;56.20;;;;;;5059467;28;20212;-88
2023/12/19 08:57:02;;;;;;;11.43;7.80;;;10.80;56.10;;;;;;5062912;28;20208;-86
2023/12/19 08:59:28;;;;;;;10.83;7.47;;;10.80;56.10;;;;;;5066983;28;20547;-87
2023/12/19 09:01:55;;;;;;;10.70;7.67;;;10.80;56.00;;;;;;5068098;28;20630;-87
2023/12/19 09:04:21;;;;;;;10.03;7.57;;;10.80;56.00;;;;;;5055809;28;20184;-87
2023/12/19 09:06:48;;;;;;;9.77;8.10;;;10.80;56.00;;;;;;5060426;28;20253;-88
2023/12/19 09:09:15;;;;;;;10.10;7.83;;;10.80;56.00;;;;;;5059098;28;20225;-88
2023/12/19 09:11:41;;;;;;;12.27;7.67;;;10.90;56.20;;;;;;5081736;28;20324;-87
2023/12/19 09:14:07;;;;;;;11.03;8.33;;;10.90;56.10;;;;;;5095888;27;20183;-88
2023/12/19 09:16:33;;;;;;;10.37;7.93;;;11.00;56.10;;;;;;5088006;28;20212;-88
2023/12/19 09:19:02;;;;;;;10.53;7.70;;;11.00;56.10;;;;;;5095674;28;20695;-88
2023/12/19 09:21:27;;;;;;;10.57;8.03;;;11.00;56.00;;;;;;5097125;28;20194;-87
2023/12/19 09:23:53;;;;;;;8.83;7.20;;;11.00;55.90;;;;;;5096702;28;20218;-88
2023/12/19 09:26:19;;;;;;;10.73;8.53;;;11.10;56.00;;;;;;5110232;28;20285;-87
2023/12/19 09:28:45;;;;;;;10.07;8.03;;;11.10;56.10;;;;;;5094112;28;20270;-86
2023/12/19 09:31:11;;;;;;;9.00;7.60;;;11.10;56.10;;;;;;5099190;28;20192;-87
2023/12/19 09:33:38;;;;;;;10.27;7.83;;;11.10;55.90;;;;;;5095541;28;20589;-87
2023/12/19 09:36:18;;;;;;;9.53;8.43;;;11.10;56.10;;;;;;5098324;28;20214;-87
2023/12/19 09:38:45;;;;;;;12.50;8.30;;;11.20;56.30;;;;;;5095111;28;20184;-87
2023/12/19 09:41:11;;;;;;;10.93;8.60;;;11.20;56.10;;;;;;5094722;27;20203;-87
2023/12/19 09:43:36;;;;;;;9.27;7.33;;;11.10;56.20;;;;;;5096264;28;20194;-86
2023/12/19 09:46:02;;;;;;;10.57;8.30;;;11.20;56.30;;;;;;5093003;27;20579;-87
2023/12/19 09:48:36;;;;;;;9.40;8.23;;;11.10;56.20;;;;;;5101102;27;20186;-87
2023/12/19 09:51:04;;;;;;;9.23;7.70;;;11.20;56.50;;;;;;5090791;27;20191;-87
2023/12/19 09:53:34;;;;;;;8.40;7.50;;;11.20;56.40;;;;;;5101950;27;20175;-88
2023/12/19 09:56:01;;;;;;;9.80;8.03;;;11.20;56.50;;;;;;5103549;27;20235;-87
2023/12/19 09:58:28;;;;;;;8.97;7.50;;;11.30;57.20;;;;;;5103589;27;20184;-87
2023/12/19 10:00:57;;;;;;;9.43;8.40;;;11.30;56.60;;;;;;5101826;27;20270;-88
2023/12/19 10:03:23;;;;;;;12.43;8.87;;;11.30;56.50;;;;;;5094397;27;20272;-87
2023/12/19 10:05:49;;;;;;;11.10;7.83;;;11.40;56.50;;;;;;5101140;27;20337;-88
2023/12/19 10:08:14;;;;;;;8.73;7.43;;;11.40;56.50;;;;;;5101403;27;20191;-88
2023/12/19 10:10:56;;;;;;;9.83;7.30;;;11.40;56.50;;;;;;5093308;27;21680;-88
2023/12/19 10:13:30;;;;;;;9.00;7.97;;;11.40;56.50;;;;;;5082506;27;20179;-87
2023/12/19 10:16:00;;;;;;;10.40;7.77;;;11.40;56.40;;;;;;5103088;27;20215;-87
2023/12/19 10:18:26;;;;;;;10.27;7.90;;;11.40;56.50;;;;;;5075287;27;20191;-86
2023/12/19 10:21:08;;;;;;;8.83;7.43;;;11.30;56.60;;;;;;5098438;27;20723;-86
2023/12/19 10:23:34;;;;;;;9.97;7.80;;;11.30;56.70;;;;;;5088078;27;20233;-87
2023/12/19 10:26:00;;;;;;;9.03;8.13;;;11.30;56.90;;;;;;5082499;27;20187;-86
2023/12/19 10:28:26;;;;;;;11.03;8.73;;;11.40;57.00;;;;;;5086830;27;20194;-86
2023/12/19 10:31:14;;;;;;;10.40;8.67;;;11.40;57.00;;;;;;5099668;27;20180;-87
2023/12/19 10:33:45;;;;;;;9.70;8.27;;;11.40;57.00;;;;;;5089326;27;20187;-87
2023/12/19 10:36:28;;;;;;;10.53;8.53;;;11.50;57.00;;;;;;5088823;27;20249;-88
2023/12/19 10:38:55;;;;;;;10.80;8.63;;;11.50;57.00;;;;;;5087092;27;20195;-88
2023/12/19 10:41:23;;;;;;;9.97;8.10;;;11.50;57.10;;;;;;5093492;27;20175;-88
2023/12/19 10:43:51;;;;;;;10.77;8.60;;;11.50;57.20;;;;;;5084852;27;20199;-85
2023/12/19 10:46:18;;;;;;;11.37;9.43;;;11.50;57.10;;;;;;5101609;27;20190;-88
2023/12/19 10:48:46;;;;;;;11.00;9.50;;;11.60;57.20;;;;;;5087818;27;20207;-87
2023/12/19 10:51:17;;;;;;;10.10;8.73;;;11.60;57.20;;;;;;5085365;27;20170;-87
2023/12/19 10:53:49;;;;;;;10.13;8.37;;;11.60;57.10;;;;;;5081975;27;20271;-87
2023/12/19 10:56:21;;;;;;;9.70;8.13;;;11.50;57.20;;;;;;5076768;27;20228;-88
2023/12/19 10:58:52;;;;;;;9.93;8.57;;;11.60;57.40;;;;;;5101839;27;20179;-87
2023/12/19 11:01:21;;;;;;;10.63;9.17;;;11.60;57.30;;;;;;5092733;27;20188;-88
2023/12/19 11:03:57;;;;;;;10.77;8.50;;;11.60;57.30;;;;;;5092516;28;20201;-87
2023/12/19 11:06:31;;;;;;;10.07;8.57;;;11.70;57.90;;;;;;5085363;27;20671;-87
2023/12/19 11:09:04;;;;;;;10.33;8.87;;;11.70;57.40;;;;;;5081492;27;20262;-87
2023/12/19 11:11:38;;;;;;;9.10;7.90;;;11.80;57.40;;;;;;5080930;28;20219;-87
2023/12/19 11:14:07;;;;;;;10.07;8.87;;;11.70;57.20;;;;;;5077431;28;20204;-88
2023/12/19 11:17:09;;;;;;;9.53;8.33;;;11.80;57.30;;;;;;5077905;28;20214;-86
2023/12/19 11:19:45;;;;;;;10.07;8.40;;;11.80;57.40;;;;;;5027525;28;20197;-87
2023/12/19 11:22:31;;;;;;;11.73;8.80;;;11.80;57.40;;;;;;5025435;28;20194;-86
2023/12/19 11:25:18;;;;;;;10.17;8.60;;;11.80;57.30;;;;;;5026444;28;20202;-87
2023/12/19 11:27:52;;;;;;;10.60;8.80;;;11.70;57.40;;;;;;5016255;28;20174;-87
2023/12/19 11:30:30;;;;;;;10.60;9.50;;;11.80;57.60;;;;;;5027469;28;20189;-87
2023/12/19 11:32:56;;;;;;;9.33;8.33;;;11.80;57.40;;;;;;5006550;28;20205;-87
2023/12/19 11:35:28;;;;;;;10.37;9.27;;;11.80;57.60;;;;;;5028983;28;20298;-87
2023/12/19 11:38:14;;;;;;;11.23;8.97;;;11.70;57.30;;;;;;5004446;28;20931;-87
2023/12/19 11:40:46;;;;;;;12.07;9.27;;;11.70;57.60;;;;;;5029622;28;20255;-88
2023/12/19 11:43:27;;;;;;;20.67;9.90;;;11.80;57.80;;;;;;5014390;28;20194;-91
2023/12/19 11:46:16;;;;;;;13.00;9.37;;;11.80;57.70;;;;;;5016029;28;20188;-91
2023/12/19 11:48:46;;;;;;;12.17;8.37;;;11.80;57.90;;;;;;5013596;28;20872;-92
2023/12/19 11:51:13;;;;;;;11.77;9.17;;;11.90;57.80;;;;;;5037175;28;20185;-92
2023/12/19 11:53:40;;;;;;;9.87;8.87;;;11.90;57.60;;;;;;5036090;28;21419;-92
2023/12/19 11:56:12;;;;;;;10.93;9.40;;;11.90;57.70;;;;;;5094354;28;20237;-91
2023/12/19 11:58:49;;;;;;;10.63;8.90;;;11.90;57.80;;;;;;5074315;28;20192;-91
2023/12/19 12:01:15;;;;;;;11.00;9.77;;;12.00;57.90;;;;;;5068936;28;20180;-91
2023/12/19 12:03:41;;;;;;;11.67;8.87;;;12.00;57.80;;;;;;5077734;28;20512;-91
2023/12/19 12:06:08;;;;;;;11.27;8.87;;;12.00;57.90;;;;;;5075780;28;20177;-92
2023/12/19 12:08:34;;;;;;;11.43;9.30;;;12.00;58.10;;;;;;5081419;28;20187;-91
2023/12/19 12:11:01;;;;;;;10.57;9.40;;;12.00;58.00;;;;;;5080464;27;20239;-92
2023/12/19 12:13:30;;;;;;;12.57;9.13;;;12.10;58.10;;;;;;5085741;27;20199;-91
2023/12/19 12:15:57;;;;;;;10.33;8.50;;;12.10;58.00;;;;;;5083854;27;20222;-91
2023/12/19 12:18:24;;;;;;;12.30;9.27;;;12.10;58.00;;;;;;5083066;27;20184;-91
2023/12/19 12:20:50;;;;;;;11.37;9.47;;;12.20;58.10;;;;;;5078536;28;20254;-92
2023/12/19 12:23:19;;;;;;;13.27;9.73;;;12.30;58.10;;;;;;5080433;27;20176;-90
2023/12/19 12:25:56;;;;;;;11.70;9.87;;;12.20;58.00;;;;;;5082351;28;20183;-89
2023/12/19 12:28:26;;;;;;;14.53;10.67;;;12.20;57.90;;;;;;5099218;27;20205;-90
2023/12/19 12:31:01;;;;;;;11.33;9.67;;;12.20;58.00;;;;;;5085425;27;20180;-91
2023/12/19 12:33:28;;;;;;;11.43;8.57;;;12.30;58.00;;;;;;5080732;28;20183;-91
2023/12/19 12:35:54;;;;;;;10.23;8.67;;;12.30;57.90;;;;;;5081524;27;20239;-90
2023/12/19 12:38:22;;;;;;;12.03;8.63;;;12.30;57.90;;;;;;5099085;27;20183;-90